Latest Coastal Weather Observations for Tewantin

IDQ60701

Issued at 7:12 am EST Tuesday 7 July 2020 (issued every 10 minutes, with the page automatically refreshed every 10 minutes)

About coastal observations | Map of coastal stations | Coastal observations for QLD | Marine services | Other Formats
Station Details ID: 040908 Name: TEWANTIN RSL PARK Lat: -26.39 Lon: 153.04 Height: 6.4 m
Data from the previous 72 hours. | See also: Recent months at Tewantin
Date/Time
EST
Wind Sea
Height
m
Swell Vis
km
Cloud Weather Temp
°C
Press
hPa
Rain since
9am
mm
Dir  Spd
kts
Gust
kts
Height
m
Period
s
Dir
07/07:00am S 5 7 - - - - - - - 13.5 1025.7 0.0
07/06:30am S 4 6 - - - - - - - 12.8 1025.5 0.0
07/06:00am S 5 7 - - - - - - - 13.3 1025.4 0.0
07/05:30am SSW 5 8 - - - - - - - 13.3 1025.1 0.0
07/05:00am SSW 4 7 - - - - - - - 12.7 1024.8 0.0
07/04:30am S 5 7 - - - - - - - 13.1 1024.7 0.0
07/04:00am SSW 4 5 - - - - - - - 12.7 1024.8 0.0
07/03:30am S 2 4 - - - - - - - 12.6 1024.8 0.0
07/03:00am S 4 7 - - - - - - - 13.2 1025.0 0.0
07/02:30am S 4 6 - - - - - - - 13.1 1025.0 0.0
07/02:00am S 3 4 - - - - - - - 11.6 1025.2 0.0
07/01:30am CALM 0 3 - - - - - - - 11.5 1025.2 0.0
07/01:00am CALM 0 0 - - - - - - - 11.6 1025.5 0.0
07/12:30am SSW 1 3 - - - - - - - 11.8 1025.7 0.0
07/12:00am CALM 0 0 - - - - - - - 12.3 1026.0 0.0
 
Date/Time
EST
Wind Sea
Height
m
Swell Vis
km
Cloud Weather Temp
°C
Press
hPa
Rain since
9am
mm
Dir  Spd
kts
Gust
kts
Height
m
Period
s
Dir
06/11:30pm CALM 0 2 - - - - - - - 12.8 1026.1 0.0
06/11:00pm S 3 4 - - - - - - - 13.2 1026.3 0.0
06/10:30pm SSW 4 5 - - - - - - - 13.9 1026.5 0.0
06/10:00pm SSW 4 6 - - - - - - - 13.9 1026.2 0.0
06/09:30pm SSW 1 4 - - - - - - - 13.1 1026.2 0.0
06/09:00pm CALM 0 3 - - - - - - - 13.5 1026.1 0.0
06/08:30pm SSW 5 7 - - - - - - - 14.4 1025.9 0.0
06/08:00pm SSW 5 6 - - - - - - - 14.5 1025.9 0.0
06/07:30pm SSW 3 4 - - - - - - - 14.5 1025.8 0.0
06/07:00pm SSW 3 5 - - - - - - - 15.2 1025.7 0.0
06/06:30pm SSW 4 6 - - - - - - - 15.6 1025.4 0.0
06/06:00pm SSW 5 6 - - - - - - - 16.0 1024.9 0.0
06/05:30pm S 5 6 - - - - - - - 16.9 1024.7 0.0
06/05:00pm SSE 4 6 - - - - - - - 17.5 1024.6 0.0
06/04:30pm SSE 5 10 - - - - - - - 18.2 1024.4 0.0
06/04:00pm SSE 6 9 - - - - - - - 18.8 1024.1 0.0
06/03:30pm SSE 7 10 - - - - - - - 19.0 1024.0 0.0
06/03:00pm SE 6 11 - - - - - - - 19.5 1023.9 0.0
06/02:30pm SE 7 11 - - - - - - - 19.8 1023.8 0.0
06/02:00pm SE 8 12 - - - - - - - 19.6 1024.1 0.0
06/01:30pm SSE 7 13 - - - - - - - 20.1 1024.2 0.0
06/01:00pm SSE 7 11 - - - - - - - 20.5 1024.4 0.0
06/12:30pm SSE 7 11 - - - - - - - 20.6 1024.5 0.0
06/12:00pm S 6 10 - - - - - - - 20.8 1024.9 0.0
06/11:30am S 7 11 - - - - - - - 19.7 1025.5 0.0
06/11:00am S 7 11 - - - - - - - 19.1 1025.8 0.0
06/10:30am S 8 12 - - - - - - - 18.9 1025.6 0.0
06/10:00am S 9 13 - - - - - - - 17.8 1025.9 0.0
06/09:30am S 6 9 - - - - - - - 17.7 1026.0 0.0
06/09:00am S 4 6 - - - - - - - 16.3 1025.7 0.0
06/08:30am CALM 0 0 - - - - - - - 13.5 1025.3 0.0
06/08:00am CALM 0 0 - - - - - - - 11.2 1025.0 0.0
06/07:30am CALM 0 0 - - - - - - - 8.6 1024.6 0.0
06/07:00am CALM 0 0 - - - - - - - 7.2 1024.0 0.0
06/06:30am CALM 0 0 - - - - - - - 7.2 1023.8 0.0
06/06:00am CALM 0 0 - - - - - - - 7.1 1023.7 0.0
06/05:30am CALM 0 0 - - - - - - - 7.2 1023.5 0.0
06/05:00am CALM 0 0 - - - - - - - 7.5 1023.2 0.0
06/04:30am CALM 0 0 - - - - - - - 7.9 1022.8 0.0
06/04:00am CALM 0 0 - - - - - - - 8.3 1022.7 0.0
06/03:30am CALM 0 0 - - - - - - - 8.1 1022.8 0.0
06/03:00am CALM 0 0 - - - - - - - 7.9 1022.7 0.0
06/02:30am CALM 0 0 - - - - - - - 7.9 1022.8 0.0
06/02:00am SW 2 5 - - - - - - - 8.1 1022.9 0.0
06/01:30am CALM 0 0 - - - - - - - 8.1 1023.0 0.0
06/01:00am SW 1 4 - - - - - - - 8.4 1023.4 0.0
06/12:30am CALM 0 0 - - - - - - - 8.7 1023.4 0.0
06/12:00am CALM 0 0 - - - - - - - 8.9 1023.5 0.0
 
Date/Time
EST
Wind Sea
Height
m
Swell Vis
km
Cloud Weather Temp
°C
Press
hPa
Rain since
9am
mm
Dir  Spd
kts
Gust
kts
Height
m
Period
s
Dir
05/11:30pm CALM 0 0 - - - - - - - 8.5 1023.5 0.0
05/11:00pm CALM 0 0 - - - - - - - 8.9 1023.6 0.0
05/10:30pm CALM 0 0 - - - - - - - 9.3 1023.7 0.0
05/10:00pm CALM 0 0 - - - - - - - 9.7 1023.5 0.0
05/09:30pm SW 2 3 - - - - - - - 9.2 1023.4 0.0
05/09:00pm SW 3 5 - - - - - - - 9.4 1023.0 0.0
05/08:30pm CALM 0 0 - - - - - - - 9.6 1022.9 0.0
05/08:00pm WSW 1 3 - - - - - - - 10.2 1022.6 0.0
05/07:30pm CALM 0 0 - - - - - - - 10.7 1022.5 0.0
05/07:00pm CALM 0 0 - - - - - - - 11.5 1022.3 0.0
05/06:30pm W 1 3 - - - - - - - 12.4 1022.0 0.0
05/06:00pm SW 1 3 - - - - - - - 13.5 1021.9 0.0
05/05:30pm CALM 0 0 - - - - - - - 14.6 1021.5 0.0
05/05:00pm ENE 1 3 - - - - - - - 15.7 1021.4 0.0
05/04:30pm ENE 3 4 - - - - - - - 16.6 1021.1 0.0
05/04:00pm NE 3 5 - - - - - - - 17.0 1020.7 0.0
05/03:30pm ESE 3 5 - - - - - - - 17.8 1020.6 0.0
05/03:00pm E 4 7 - - - - - - - 18.0 1020.6 0.0
05/02:30pm ESE 4 7 - - - - - - - 18.2 1020.6 0.0
05/02:00pm NE 4 7 - - - - - - - 18.9 1020.6 0.0
05/01:30pm ENE 4 7 - - - - - - - 19.1 1020.5 0.0
05/01:00pm N 3 5 - - - - - - - 19.6 1020.4 0.0
05/12:30pm ENE 3 3 - - - - - - - 18.8 1020.8 0.0
05/12:00pm NE 3 4 - - - - - - - 18.5 1021.5 0.0
05/11:30am ENE 3 4 - - - - - - - 19.0 1022.1 0.0
05/11:00am NNW 1 4 - - - - - - - 17.6 1022.5 0.0
05/10:30am NNW 3 5 - - - - - - - 17.3 1022.7 0.0
05/10:00am W 3 5 - - - - - - - 16.1 1022.8 0.0
05/09:30am WSW 4 6 - - - - - - - 14.9 1022.9 0.0
05/09:00am WSW 3 7 - - - - - - - 13.5 1023.0 0.0
05/08:30am WSW 5 7 - - - - - - - 11.7 1022.8 0.0
05/08:00am N 2 7 - - - - - - - 10.5 1022.8 0.0
05/07:30am NNW 3 4 - - - - - - - 7.9 1022.6 0.0
05/07:00am WNW 1 5 - - - - - - - 7.2 1022.4 0.0
05/06:30am WNW 2 4 - - - - - - - 7.2 1021.9 0.0
05/06:00am WSW 1 4 - - - - - - - 7.7 1021.3 0.0
05/05:30am W 1 4 - - - - - - - 7.5 1021.1 0.0
05/05:00am W 1 4 - - - - - - - 7.4 1020.8 0.0
05/04:30am CALM 0 3 - - - - - - - 7.8 1020.6 0.0
05/04:00am WSW 3 6 - - - - - - - 8.4 1020.6 0.0
05/03:30am CALM 0 3 - - - - - - - 7.2 1020.7 0.0
05/03:00am W 1 3 - - - - - - - 8.1 1020.7 0.0
05/02:30am CALM 0 3 - - - - - - - 8.7 1020.7 0.0
05/02:00am W 1 5 - - - - - - - 9.9 1021.1 0.0
05/01:30am SW 4 5 - - - - - - - 9.4 1021.3 0.0
05/01:00am CALM 0 3 - - - - - - - 9.4 1021.4 0.0
05/12:30am CALM 0 0 - - - - - - - 9.5 1021.4 0.0
05/12:00am W 1 4 - - - - - - - 10.3 1021.3 0.0
 
Date/Time
EST
Wind Sea
Height
m
Swell Vis
km
Cloud Weather Temp
°C
Press
hPa
Rain since
9am
mm
Dir  Spd
kts
Gust
kts
Height
m
Period
s
Dir
04/11:30pm SSW 4 7 - - - - - - - 11.7 1021.1 0.0
04/11:00pm SW 4 6 - - - - - - - 11.5 1021.4 0.0
04/10:30pm WSW 1 4 - - - - - - - 10.8 1021.3 0.0
04/10:00pm WSW 1 4 - - - - - - - 10.8 1021.3 0.0
04/09:30pm SE 2 4 - - - - - - - 11.8 1021.5 0.0
04/09:00pm SW 1 3 - - - - - - - 11.7 1021.1 0.0
04/08:30pm SW 4 5 - - - - - - - 12.1 1020.9 0.0
04/08:00pm W 4 6 - - - - - - - 13.2 1020.6 0.0
04/07:30pm CALM 0 3 - - - - - - - 13.0 1020.3 0.0
04/07:00pm CALM 0 1 - - - - - - - 14.1 1019.9 0.0
04/06:30pm CALM 0 3 - - - - - - - 14.2 1019.3 0.0
04/06:00pm WNW 3 6 - - - - - - - 15.1 1018.9 0.0
04/05:30pm SW 1 4 - - - - - - - 16.0 1019.0 0.0
04/05:00pm WSW 4 6 - - - - - - - 18.3 1018.7 0.0
04/04:30pm SW 5 9 - - - - - - - 19.5 1018.3 0.0
04/04:00pm SW 5 8 - - - - - - - 19.8 1017.9 0.0
04/03:30pm SW 5 10 - - - - - - - 20.2 1017.9 0.0
04/03:00pm WSW 5 11 - - - - - - - 20.6 1017.7 0.0
04/02:30pm WSW 7 13 - - - - - - - 20.5 1017.8 0.0
04/02:00pm W 6 10 - - - - - - - 21.0 1017.8 0.0
04/01:30pm WSW 7 14 - - - - - - - 21.1 1018.1 0.0
04/01:00pm WSW 6 10 - - - - - - - 20.4 1018.4 0.0
04/12:30pm SSW 8 14 - - - - - - - 20.0 1018.8 0.0
04/12:00pm SW 6 12 - - - - - - - 20.3 1019.5 0.0
04/11:30am SW 7 13 - - - - - - - 19.7 1020.2 0.0
04/11:00am WSW 5 9 - - - - - - - 19.1 1020.7 0.0
04/10:30am SW 6 10 - - - - - - - 18.5 1021.1 0.0
04/10:00am WSW 5 7 - - - - - - - 18.1 1021.4 0.0
04/09:30am WSW 4 7 - - - - - - - 17.5 1021.6 0.0
04/09:00am SW 5 8 - - - - - - - 16.7 1021.8 0.0
04/08:30am SW 5 11 - - - - - - - 16.1 1021.6 0.0
04/08:00am SW 4 9 - - - - - - - 15.5 1021.4 0.0
04/07:30am SW 3 6 - - - - - - - 14.5 1021.2 0.0

Other formats

Comma delimited format used in spreadsheet applications
http://www.bom.gov.au/fwo/IDQ60701/IDQ60701.94570.axf

JavaScript Object Notation format (JSON) in row-major order
http://www.bom.gov.au/fwo/IDQ60701/IDQ60701.94570.json

Data quality

Most of these data are generated automatically and are frequently updated. Quality checks on data are not normally performed. It is possible for incorrect values to appear. Refer to information at About Latest Weather Observations and please check the disclaimer before using these data.